createdAt,value
2023-05-05T00:00:39.879Z,76.60
2023-05-05T00:01:39.562Z,77.42
2023-05-05T00:02:39.695Z,77.52
2023-05-05T00:03:39.694Z,77.31
2023-05-05T00:04:40.769Z,77.42
2023-05-05T00:05:39.547Z,77.11
2023-05-05T00:06:39.535Z,77.22
2023-05-05T00:07:39.607Z,76.77
2023-05-05T00:08:39.512Z,76.36
2023-05-05T00:09:39.508Z,75.44
2023-05-05T00:10:39.502Z,75.75
2023-05-05T00:11:39.513Z,74.90
2023-05-05T00:12:39.614Z,75.00
2023-05-05T00:13:39.491Z,75.48
2023-05-05T00:14:39.483Z,75.82
2023-05-05T00:15:39.487Z,77.59
2023-05-05T00:16:39.502Z,78.31
2023-05-05T00:17:39.482Z,78.00
2023-05-05T00:18:39.430Z,78.31
2023-05-05T00:19:39.443Z,78.52
2023-05-05T00:20:39.451Z,78.31
2023-05-05T00:21:39.475Z,78.34
2023-05-05T00:22:39.451Z,78.59
2023-05-05T00:23:39.431Z,78.89
2023-05-05T00:24:39.436Z,79.16
2023-05-05T00:25:39.416Z,79.57
2023-05-05T00:26:39.396Z,79.88
2023-05-05T00:27:40.978Z,79.68
2023-05-05T00:28:40.398Z,78.82
2023-05-05T00:29:39.397Z,78.31
2023-05-05T00:30:39.401Z,78.31
2023-05-05T00:31:39.448Z,77.19
2023-05-05T00:32:39.439Z,77.39
2023-05-05T00:33:39.372Z,77.90
2023-05-05T00:34:39.352Z,77.19
2023-05-05T00:35:39.343Z,77.53
2023-05-05T00:36:39.325Z,77.39
2023-05-05T00:37:39.340Z,77.73
2023-05-05T00:38:39.361Z,77.94
2023-05-05T00:39:39.314Z,78.14
2023-05-05T00:40:39.311Z,78.79
2023-05-05T00:41:39.307Z,78.75
2023-05-05T00:42:39.305Z,78.75
2023-05-05T00:43:39.350Z,77.94
2023-05-05T00:44:39.316Z,78.04
2023-05-05T00:45:39.289Z,78.04
2023-05-05T00:46:39.312Z,77.94
2023-05-05T00:47:39.306Z,78.14
2023-05-05T00:48:39.264Z,77.04
2023-05-05T00:49:39.420Z,77.39
2023-05-05T00:50:39.252Z,76.74
2023-05-05T00:51:39.275Z,76.70
2023-05-05T00:52:39.256Z,75.37
2023-05-05T00:53:39.243Z,74.93
2023-05-05T00:54:39.241Z,75.27
2023-05-05T00:55:39.217Z,74.87
2023-05-05T00:56:39.260Z,75.17
2023-05-05T00:57:39.208Z,74.90
2023-05-05T00:58:39.197Z,75.78
2023-05-05T00:59:39.206Z,74.90
2023-05-05T01:00:39.217Z,75.51
2023-05-05T01:01:39.231Z,76.78
2023-05-05T01:02:39.266Z,76.78
2023-05-05T01:03:39.215Z,77.29
2023-05-05T01:04:39.178Z,76.74
2023-05-05T01:05:39.241Z,76.06
2023-05-05T01:06:39.193Z,76.50
2023-05-05T01:07:39.252Z,77.53
2023-05-05T01:08:39.988Z,77.73
2023-05-05T01:09:39.156Z,77.87
2023-05-05T01:10:39.179Z,78.34
2023-05-05T01:11:39.196Z,78.24
2023-05-05T01:12:39.144Z,78.04
2023-05-05T01:13:39.120Z,78.04
2023-05-05T01:14:39.121Z,78.04
2023-05-05T01:15:39.119Z,78.08
2023-05-05T01:16:39.145Z,78.76
2023-05-05T01:17:39.136Z,79.79
2023-05-05T01:18:39.092Z,80.44
2023-05-05T01:19:39.102Z,80.54
2023-05-05T01:20:39.097Z,81.09
2023-05-05T01:21:39.106Z,80.44
2023-05-05T01:22:39.072Z,81.67
2023-05-05T01:23:39.099Z,80.99
2023-05-05T01:24:39.053Z,81.67
2023-05-05T01:25:39.068Z,81.57
2023-05-05T01:26:39.045Z,80.91
2023-05-05T01:27:39.064Z,80.19
2023-05-05T01:28:39.060Z,80.09
2023-05-05T01:29:39.033Z,79.58
2023-05-05T01:30:39.084Z,79.58
2023-05-05T01:31:39.136Z,79.68
2023-05-05T01:32:39.029Z,79.00
2023-05-05T01:33:39.013Z,78.69
2023-05-05T01:34:39.023Z,78.49
2023-05-05T01:35:38.996Z,78.17
2023-05-05T01:36:39.020Z,78.49
2023-05-05T01:37:38.990Z,78.69
2023-05-05T01:38:38.963Z,78.63
2023-05-05T01:39:38.995Z,78.97
2023-05-05T01:40:38.981Z,79.44
2023-05-05T01:41:38.938Z,79.34
2023-05-05T01:42:38.958Z,79.38
2023-05-05T01:43:38.944Z,79.34
2023-05-05T01:44:38.957Z,79.03
2023-05-05T01:45:38.964Z,78.38
2023-05-05T01:46:38.922Z,78.38
2023-05-05T01:47:38.930Z,78.17
2023-05-05T01:48:40.354Z,78.17
2023-05-05T01:49:38.920Z,77.60
2023-05-05T01:50:38.914Z,78.97
2023-05-05T01:51:38.889Z,79.72
2023-05-05T01:52:38.867Z,80.17
2023-05-05T01:53:38.877Z,80.68
2023-05-05T01:54:38.923Z,81.43
2023-05-05T01:55:38.881Z,82.15
2023-05-05T01:56:38.866Z,82.05
2023-05-05T01:57:38.836Z,82.01
2023-05-05T01:58:38.845Z,82.01
2023-05-05T01:59:38.825Z,81.91
2023-05-05T02:00:38.879Z,81.81
2023-05-05T02:01:38.872Z,80.88
2023-05-05T02:02:38.882Z,80.68
2023-05-05T02:03:38.942Z,81.50
2023-05-05T02:04:38.807Z,81.09
2023-05-05T02:05:38.836Z,81.71
2023-05-05T02:07:11.219Z,80.74
2023-05-05T02:07:38.820Z,80.33
2023-05-05T02:09:12.214Z,80.13
2023-05-05T02:10:11.218Z,80.03
2023-05-05T02:10:38.798Z,80.78
2023-05-05T02:12:11.205Z,80.64
2023-05-05T02:12:38.908Z,80.13
2023-05-05T02:14:12.195Z,79.48
2023-05-05T02:15:11.185Z,79.72
2023-05-05T02:15:38.789Z,80.88
2023-05-05T02:17:11.213Z,81.64
2023-05-05T02:17:38.769Z,82.36
2023-05-05T02:18:38.715Z,80.88
2023-05-05T02:19:38.705Z,81.43
2023-05-05T02:20:38.708Z,82.26
2023-05-05T02:21:38.720Z,82.15
2023-05-05T02:22:38.685Z,81.95
2023-05-05T02:23:38.723Z,82.12
2023-05-05T02:24:38.674Z,81.81
2023-05-05T02:25:38.684Z,81.09
2023-05-05T02:26:38.672Z,80.85
2023-05-05T02:27:39.706Z,80.13
2023-05-05T02:28:38.665Z,80.44
2023-05-05T02:29:38.645Z,80.54
2023-05-05T02:30:38.651Z,80.74
2023-05-05T02:31:38.659Z,80.64
2023-05-05T02:32:38.681Z,80.54
2023-05-05T02:33:38.631Z,79.99
2023-05-05T02:34:38.620Z,79.38
2023-05-05T02:35:38.614Z,79.68
2023-05-05T02:36:38.657Z,79.89
2023-05-05T02:37:38.594Z,80.13
2023-05-05T02:38:38.609Z,80.23
2023-05-05T02:39:38.577Z,80.09
2023-05-05T02:40:38.573Z,79.99
2023-05-05T02:41:38.576Z,80.33
2023-05-05T02:42:38.600Z,81.09
2023-05-05T02:43:38.585Z,81.13
2023-05-05T02:44:38.563Z,82.40
2023-05-05T02:45:38.554Z,83.22
2023-05-05T02:46:38.573Z,83.01
2023-05-05T02:47:38.643Z,83.07
2023-05-05T02:48:38.568Z,82.46
2023-05-05T02:49:38.553Z,82.56
2023-05-05T02:50:38.535Z,83.04
2023-05-05T02:51:38.558Z,81.98
2023-05-05T02:52:38.545Z,81.46
2023-05-05T02:53:38.518Z,81.01
2023-05-05T02:54:38.566Z,80.71
2023-05-05T02:55:38.541Z,80.60
2023-05-05T02:56:38.530Z,80.85
2023-05-05T02:57:38.478Z,81.98
2023-05-05T02:58:38.850Z,81.77
2023-05-05T02:59:38.484Z,81.43
2023-05-05T03:00:38.471Z,80.81
2023-05-05T03:01:38.521Z,80.46
2023-05-05T03:02:38.506Z,79.34
2023-05-05T03:03:38.564Z,79.85
2023-05-05T03:04:38.443Z,79.96
2023-05-05T03:05:38.455Z,80.09
2023-05-05T03:06:38.426Z,80.16
2023-05-05T03:07:38.449Z,79.82
2023-05-05T03:08:38.404Z,79.41
2023-05-05T03:09:38.425Z,79.10
2023-05-05T03:10:38.380Z,79.20
2023-05-05T03:11:38.396Z,80.19
2023-05-05T03:12:38.387Z,81.01
2023-05-05T03:13:38.412Z,80.81
2023-05-05T03:14:38.392Z,81.67
2023-05-05T03:15:38.386Z,81.98
2023-05-05T03:16:38.443Z,82.49
2023-05-05T03:17:38.422Z,82.28
2023-05-05T03:18:38.364Z,82.28
2023-05-05T03:19:38.380Z,82.24
2023-05-05T03:20:38.373Z,81.84
2023-05-05T03:21:38.329Z,81.79
2023-05-05T03:22:38.351Z,80.57
2023-05-05T03:23:38.320Z,80.81
2023-05-05T03:24:38.296Z,81.57
2023-05-05T03:25:38.296Z,81.43
2023-05-05T03:26:38.287Z,81.29
2023-05-05T03:27:38.323Z,80.33
2023-05-05T03:28:38.277Z,79.82
2023-05-05T03:29:38.309Z,78.96
2023-05-05T03:30:38.279Z,78.89
2023-05-05T03:31:38.318Z,78.49
2023-05-05T03:32:38.297Z,79.54
2023-05-05T03:33:38.267Z,80.30
2023-05-05T03:34:38.244Z,80.74
2023-05-05T03:35:38.229Z,81.52
2023-05-05T03:36:38.244Z,80.81
2023-05-05T03:37:38.225Z,81.57
2023-05-05T03:38:38.239Z,81.71
2023-05-05T03:39:38.228Z,81.81
2023-05-05T03:40:44.186Z,81.77
2023-05-05T03:41:40.218Z,81.87
2023-05-05T03:42:38.195Z,81.43
2023-05-05T03:43:38.220Z,81.52
2023-05-05T03:44:38.174Z,80.71
2023-05-05T03:45:38.371Z,80.85
2023-05-05T03:46:38.185Z,81.71
2023-05-05T03:47:38.164Z,82.42
2023-05-05T03:48:38.166Z,82.63
2023-05-05T03:49:38.161Z,82.63
2023-05-05T03:50:38.144Z,82.32
2023-05-05T03:51:38.179Z,81.57
2023-05-05T03:52:38.248Z,81.67
2023-05-05T03:53:38.117Z,81.01
2023-05-05T03:54:38.785Z,80.60
2023-05-05T03:55:38.133Z,81.05
2023-05-05T03:56:38.094Z,81.87
2023-05-05T03:57:38.101Z,81.01
2023-05-05T03:58:38.106Z,80.95
2023-05-05T03:59:38.075Z,81.67
2023-05-05T04:00:38.112Z,82.39
2023-05-05T04:01:38.069Z,81.77
2023-05-05T04:02:38.204Z,81.46
2023-05-05T04:03:38.144Z,81.77
2023-05-05T04:04:38.066Z,82.08
2023-05-05T04:05:38.057Z,81.57
2023-05-05T04:06:38.033Z,81.77
2023-05-05T04:07:38.054Z,81.32
2023-05-05T04:08:38.020Z,81.32
2023-05-05T04:09:38.048Z,80.91
2023-05-05T04:10:38.017Z,80.91
2023-05-05T04:11:38.026Z,81.67
2023-05-05T04:12:38.041Z,81.46
2023-05-05T04:13:38.030Z,81.73
2023-05-05T04:14:38.005Z,80.91
2023-05-05T04:15:38.023Z,81.73
2023-05-05T04:16:38.014Z,81.01
2023-05-05T04:17:38.013Z,80.51
2023-05-05T04:18:37.975Z,80.57
2023-05-05T04:19:37.979Z,80.51
2023-05-05T04:20:37.946Z,80.57
2023-05-05T04:21:37.952Z,79.85
2023-05-05T04:22:37.935Z,80.46
2023-05-05T04:23:37.948Z,80.36
2023-05-05T04:24:37.929Z,80.60
2023-05-05T04:25:37.956Z,80.81
2023-05-05T04:26:37.940Z,80.77
2023-05-05T04:27:37.918Z,81.01
2023-05-05T04:28:37.926Z,80.57
2023-05-05T04:29:37.884Z,80.33
2023-05-05T04:30:37.939Z,79.98
2023-05-05T04:31:38.006Z,79.06
2023-05-05T04:32:37.983Z,78.86
2023-05-05T04:33:37.925Z,78.61
2023-05-05T04:34:37.901Z,78.20
2023-05-05T04:35:37.869Z,78.07
2023-05-05T04:36:37.851Z,77.42
2023-05-05T04:37:37.886Z,77.15
2023-05-05T04:38:37.933Z,77.25
2023-05-05T04:39:37.871Z,77.25
2023-05-05T04:40:37.840Z,77.22
2023-05-05T04:41:37.848Z,77.01
2023-05-05T04:42:37.915Z,76.67
2023-05-05T04:43:37.814Z,76.16
2023-05-05T04:44:37.837Z,75.75
2023-05-05T04:45:37.857Z,75.51
2023-05-05T04:46:37.830Z,75.31
2023-05-05T04:47:37.866Z,74.90
2023-05-05T04:48:38.512Z,74.90
2023-05-05T04:49:37.838Z,74.79
2023-05-05T04:50:37.778Z,74.83
2023-05-05T04:51:37.924Z,75.51
2023-05-05T04:52:37.771Z,75.34
2023-05-05T04:53:37.884Z,74.76
2023-05-05T04:54:37.768Z,74.76
2023-05-05T04:55:38.757Z,74.86
2023-05-05T04:56:37.769Z,74.35
2023-05-05T04:57:37.807Z,73.60
2023-05-05T04:58:37.753Z,73.84
2023-05-05T04:59:37.737Z,73.74
2023-05-05T05:00:37.762Z,73.71
2023-05-05T05:01:38.731Z,73.60
2023-05-05T05:02:38.866Z,73.10
2023-05-05T05:03:37.931Z,73.57
2023-05-05T05:04:37.754Z,73.50
2023-05-05T05:05:37.779Z,73.47
2023-05-05T05:06:37.756Z,73.57
2023-05-05T05:07:37.684Z,72.52
2023-05-05T05:08:37.705Z,73.02
2023-05-05T05:09:37.679Z,72.62
2023-05-05T05:10:38.702Z,72.82
2023-05-05T05:11:37.725Z,73.19
2023-05-05T05:12:37.726Z,73.10
2023-05-05T05:13:37.683Z,73.10
2023-05-05T05:14:37.632Z,72.78
2023-05-05T05:15:37.616Z,72.55
2023-05-05T05:16:37.684Z,71.40
2023-05-05T05:17:37.770Z,71.16
2023-05-05T05:18:37.651Z,71.50
2023-05-05T05:19:37.621Z,71.19
2023-05-05T05:20:37.612Z,71.50
2023-05-05T05:21:37.606Z,71.60
2023-05-05T05:22:37.583Z,71.50
2023-05-05T05:23:37.575Z,71.91
2023-05-05T05:24:37.639Z,71.80
2023-05-05T05:25:37.569Z,71.60
2023-05-05T05:26:37.594Z,71.80
2023-05-05T05:27:37.596Z,71.70
2023-05-05T05:28:37.546Z,71.19
2023-05-05T05:29:37.599Z,71.30
2023-05-05T05:30:37.583Z,70.45
2023-05-05T05:31:37.580Z,70.99
2023-05-05T05:32:37.571Z,71.57
2023-05-05T05:33:37.525Z,71.16
2023-05-05T05:34:37.535Z,70.04
2023-05-05T05:35:37.539Z,70.11
2023-05-05T05:36:37.554Z,70.04
2023-05-05T05:37:37.496Z,70.52
2023-05-05T05:38:37.509Z,70.62
2023-05-05T05:39:37.464Z,71.43
2023-05-05T05:40:37.475Z,69.81
2023-05-05T05:41:37.526Z,71.12
2023-05-05T05:42:37.538Z,71.53
2023-05-05T05:43:37.466Z,71.12
2023-05-05T05:44:37.412Z,70.38
2023-05-05T05:45:37.607Z,70.59
2023-05-05T05:46:37.466Z,69.95
2023-05-05T05:47:37.446Z,70.04
2023-05-05T05:48:38.427Z,68.90
2023-05-05T05:49:37.409Z,68.19
2023-05-05T05:50:37.394Z,67.98
2023-05-05T05:51:37.385Z,68.08
2023-05-05T05:52:37.391Z,67.75
2023-05-05T05:53:37.364Z,67.85
2023-05-05T05:54:37.360Z,67.34
2023-05-05T05:56:09.823Z,67.03
2023-05-05T05:56:37.368Z,67.03
2023-05-05T05:57:37.372Z,67.41
2023-05-05T05:58:37.385Z,66.86
2023-05-05T05:59:37.314Z,68.19
2023-05-05T06:00:37.325Z,68.19
2023-05-05T06:01:37.325Z,68.70
2023-05-05T06:02:37.464Z,68.93
2023-05-05T06:03:37.375Z,68.52
2023-05-05T06:04:37.362Z,68.39
2023-05-05T06:05:37.283Z,67.24
2023-05-05T06:06:37.299Z,67.75
2023-05-05T06:07:37.281Z,67.95
2023-05-05T06:08:37.278Z,67.95
2023-05-05T06:09:37.275Z,67.85
2023-05-05T06:10:37.253Z,68.46
2023-05-05T06:11:37.250Z,67.92
2023-05-05T06:12:37.284Z,66.97
2023-05-05T06:13:37.212Z,67.14
2023-05-05T06:14:37.240Z,66.44
2023-05-05T06:15:37.272Z,65.59
2023-05-05T06:16:37.198Z,65.59
2023-05-05T06:17:37.192Z,65.90
2023-05-05T06:18:37.205Z,65.90
2023-05-05T06:19:37.211Z,64.62
2023-05-05T06:20:37.184Z,64.73
2023-05-05T06:21:37.212Z,64.22
2023-05-05T06:22:37.173Z,64.22
2023-05-05T06:23:37.505Z,64.09
2023-05-05T06:24:37.176Z,63.89
2023-05-05T06:25:37.337Z,64.19
2023-05-05T06:26:37.144Z,63.68
2023-05-05T06:27:37.152Z,63.58
2023-05-05T06:28:37.135Z,64.09
2023-05-05T06:29:37.109Z,64.16
2023-05-05T06:30:37.101Z,63.68
2023-05-05T06:31:37.191Z,63.55
2023-05-05T06:32:37.128Z,63.81
2023-05-05T06:33:37.166Z,63.68
2023-05-05T06:34:37.079Z,63.55
2023-05-05T06:35:37.188Z,63.62
2023-05-05T06:36:37.231Z,63.15
2023-05-05T06:37:37.167Z,63.12
2023-05-05T06:38:37.048Z,62.82
2023-05-05T06:39:37.052Z,63.19
2023-05-05T06:40:37.106Z,62.08
2023-05-05T06:41:37.040Z,61.35
2023-05-05T06:42:37.064Z,61.14
2023-05-05T06:43:37.051Z,61.41
2023-05-05T06:44:37.043Z,60.81
2023-05-05T06:45:37.079Z,61.47
2023-05-05T06:46:37.016Z,62.08
2023-05-05T06:47:37.087Z,61.85
2023-05-05T06:48:37.016Z,61.24
2023-05-05T06:49:37.027Z,60.91
2023-05-05T06:50:37.170Z,60.71
2023-05-05T06:51:36.998Z,60.51
2023-05-05T06:52:36.961Z,60.51
2023-05-05T06:53:36.963Z,59.27
2023-05-05T06:54:36.963Z,59.75
2023-05-05T06:55:36.961Z,59.34
2023-05-05T06:56:36.928Z,60.21
2023-05-05T06:57:36.943Z,61.16
2023-05-05T06:58:37.043Z,59.24
2023-05-05T06:59:36.910Z,58.71
2023-05-05T07:00:37.023Z,60.68
2023-05-05T07:01:36.956Z,61.18
2023-05-05T07:02:36.924Z,59.97
2023-05-05T07:03:36.955Z,60.25
2023-05-05T07:04:36.926Z,58.74
2023-05-05T07:05:36.893Z,58.51
2023-05-05T07:06:37.041Z,58.58
2023-05-05T07:07:37.157Z,57.65
2023-05-05T07:08:36.853Z,57.15
2023-05-05T07:09:37.037Z,56.14
2023-05-05T07:10:36.857Z,56.01
2023-05-05T07:11:36.838Z,55.96
2023-05-05T07:12:36.905Z,55.66
2023-05-05T07:13:36.838Z,54.96
2023-05-05T07:14:36.849Z,55.91
2023-05-05T07:15:36.988Z,56.01
2023-05-05T07:16:36.863Z,57.15
2023-05-05T07:17:36.889Z,56.79
2023-05-05T07:18:36.824Z,56.56
2023-05-05T07:19:36.826Z,55.53
2023-05-05T07:21:10.233Z,53.82
2023-05-05T07:22:09.465Z,51.67
2023-05-05T07:22:36.796Z,49.74
2023-05-05T07:24:09.220Z,48.69
2023-05-05T07:24:36.809Z,48.77
2023-05-05T07:26:09.214Z,46.91
2023-05-05T07:27:10.376Z,46.68
2023-05-05T07:28:09.171Z,46.01
2023-05-05T07:29:09.185Z,44.58
2023-05-05T07:30:13.225Z,44.18
2023-05-05T07:30:37.740Z,44.31
2023-05-05T07:31:36.787Z,44.70
2023-05-05T07:32:36.744Z,46.11
2023-05-05T07:33:36.733Z,47.47
2023-05-05T07:34:37.986Z,49.49
2023-05-05T07:35:36.711Z,52.04
2023-05-05T07:36:36.739Z,52.32
2023-05-05T07:37:36.771Z,49.62
2023-05-05T07:38:36.703Z,47.95
2023-05-05T07:39:36.670Z,46.68
2023-05-05T07:40:36.668Z,46.01
2023-05-05T07:41:36.681Z,43.98
2023-05-05T07:42:36.689Z,43.02
2023-05-05T07:43:37.714Z,41.47
2023-05-05T07:44:36.642Z,40.96
2023-05-05T07:45:36.632Z,41.52
2023-05-05T07:46:36.817Z,42.63
2023-05-05T07:47:36.698Z,42.49
2023-05-05T07:48:36.635Z,42.39
2023-05-05T07:49:36.686Z,42.51
2023-05-05T07:50:36.654Z,43.84
2023-05-05T07:51:36.603Z,44.53
2023-05-05T07:52:47.902Z,44.42
2023-05-05T07:53:38.870Z,46.04
2023-05-05T07:54:36.918Z,44.98
2023-05-05T07:55:36.598Z,43.44
2023-05-05T07:56:36.581Z,43.08
2023-05-05T07:57:36.572Z,44.40
2023-05-05T07:58:36.608Z,44.87
2023-05-05T07:59:36.566Z,46.68
2023-05-05T08:00:36.559Z,47.10
2023-05-05T08:01:36.528Z,47.35
2023-05-05T08:02:36.631Z,47.17
2023-05-05T08:03:36.639Z,47.07
2023-05-05T08:04:36.575Z,48.97
2023-05-05T08:05:36.507Z,49.32
2023-05-05T08:06:36.516Z,49.22
2023-05-05T08:07:36.565Z,48.52
2023-05-05T08:08:36.493Z,47.20
2023-05-05T08:09:36.619Z,49.35
2023-05-05T08:10:36.498Z,51.62
2023-05-05T08:11:36.450Z,52.17
2023-05-05T08:12:36.504Z,53.59
2023-05-05T08:13:36.471Z,52.57
2023-05-05T08:14:36.468Z,55.18
2023-05-05T08:15:36.483Z,58.09
2023-05-05T08:16:36.610Z,58.09
2023-05-05T08:17:36.484Z,57.15
2023-05-05T08:18:36.433Z,57.39
2023-05-05T08:19:36.404Z,56.78
2023-05-05T08:20:36.456Z,57.41
2023-05-05T08:21:36.429Z,58.31
2023-05-05T08:22:36.437Z,55.98
2023-05-05T08:23:36.397Z,57.11
2023-05-05T08:24:36.465Z,56.51
2023-05-05T08:25:36.522Z,56.21
2023-05-05T08:26:36.401Z,56.58
2023-05-05T08:27:36.368Z,56.98
2023-05-05T08:28:36.351Z,57.08
2023-05-05T08:29:36.355Z,56.35
2023-05-05T08:30:36.365Z,55.58
2023-05-05T08:31:36.356Z,59.09
2023-05-05T08:32:36.433Z,57.39
2023-05-05T08:33:36.360Z,58.63
2023-05-05T08:34:36.363Z,54.97
2023-05-05T08:35:36.320Z,55.00
2023-05-05T08:36:36.414Z,54.97
2023-05-05T08:37:36.305Z,55.10
2023-05-05T08:38:36.304Z,54.70
2023-05-05T08:39:36.290Z,55.50
2023-05-05T08:40:36.315Z,54.90
2023-05-05T08:41:36.456Z,54.35
2023-05-05T08:42:38.585Z,53.97
2023-05-05T08:43:37.288Z,55.45
2023-05-05T08:44:36.255Z,55.18
2023-05-05T08:45:36.239Z,53.05
2023-05-05T08:46:36.293Z,53.57
2023-05-05T08:47:36.225Z,53.75
2023-05-05T08:48:36.238Z,54.17
2023-05-05T08:49:36.202Z,52.80
2023-05-05T08:50:36.215Z,51.07
2023-05-05T08:51:36.282Z,52.89
2023-05-05T08:52:36.307Z,51.45
2023-05-05T08:53:36.230Z,51.97
2023-05-05T08:54:36.209Z,51.67
2023-05-05T08:55:36.196Z,52.32
2023-05-05T08:56:36.183Z,47.53
2023-05-05T08:57:36.235Z,48.93
2023-05-05T08:58:36.156Z,49.15
2023-05-05T08:59:36.151Z,48.95
2023-05-05T09:00:36.131Z,49.52
2023-05-05T09:01:36.296Z,51.47
2023-05-05T09:02:36.264Z,51.87
2023-05-05T09:03:36.502Z,51.15
2023-05-05T09:04:36.146Z,50.57
2023-05-05T09:05:36.145Z,50.87
2023-05-05T09:06:36.163Z,51.04
2023-05-05T09:07:36.091Z,50.49
2023-05-05T09:08:36.119Z,50.49
2023-05-05T09:09:36.097Z,50.42
2023-05-05T09:10:36.098Z,49.82
2023-05-05T09:11:36.108Z,49.30
2023-05-05T09:12:36.163Z,49.00
2023-05-05T09:13:36.135Z,49.32
2023-05-05T09:14:36.088Z,50.49
2023-05-05T09:15:36.048Z,50.92
2023-05-05T09:16:36.169Z,51.22
2023-05-05T09:17:36.074Z,51.54
2023-05-05T09:18:36.024Z,51.17
2023-05-05T09:19:36.690Z,51.34
2023-05-05T09:20:36.036Z,51.67
2023-05-05T09:21:36.199Z,51.57
2023-05-05T09:22:36.082Z,51.50
2023-05-05T09:23:36.058Z,50.95
2023-05-05T09:24:36.031Z,50.70
2023-05-05T09:25:36.002Z,50.72
2023-05-05T09:26:36.014Z,50.79
2023-05-05T09:27:36.023Z,49.27
2023-05-05T09:28:36.010Z,49.35
2023-05-05T09:29:36.049Z,49.35
2023-05-05T09:30:36.026Z,48.73
2023-05-05T09:31:35.940Z,46.79
2023-05-05T09:32:35.954Z,46.65
2023-05-05T09:33:35.962Z,46.55
2023-05-05T09:34:35.972Z,46.62
2023-05-05T09:35:35.945Z,45.43
2023-05-05T09:36:35.994Z,45.29
2023-05-05T09:37:35.943Z,43.12
2023-05-05T09:38:36.063Z,41.99
2023-05-05T09:39:36.002Z,39.73
2023-05-05T09:40:35.918Z,38.95
2023-05-05T09:41:35.934Z,36.79
2023-05-05T09:42:35.901Z,34.59
2023-05-05T09:43:35.911Z,34.08
2023-05-05T09:44:35.969Z,35.43
2023-05-05T09:45:35.877Z,35.64
2023-05-05T09:46:35.903Z,37.98
2023-05-05T09:47:35.876Z,38.20
2023-05-05T09:48:35.900Z,36.34
2023-05-05T09:49:35.868Z,34.13
2023-05-05T09:50:35.864Z,34.54
2023-05-05T09:51:36.825Z,34.62
2023-05-05T09:52:35.838Z,35.85
2023-05-05T09:53:35.827Z,35.61
2023-05-05T09:54:35.825Z,36.48
2023-05-05T09:55:35.789Z,40.05
2023-05-05T09:56:35.804Z,41.38
2023-05-05T09:57:35.792Z,40.01
2023-05-05T09:58:35.827Z,39.86
2023-05-05T09:59:35.797Z,37.95
2023-05-05T10:00:35.789Z,37.77
2023-05-05T10:01:35.888Z,36.10
2023-05-05T10:02:35.793Z,36.88
2023-05-05T10:03:35.769Z,38.75
2023-05-05T10:04:35.783Z,37.71
2023-05-05T10:05:35.776Z,37.69
2023-05-05T10:06:35.761Z,35.88
2023-05-05T10:07:35.770Z,36.10
2023-05-05T10:08:35.782Z,36.20
2023-05-05T10:09:35.710Z,35.39
2023-05-05T10:10:35.712Z,35.26
2023-05-05T10:11:35.716Z,34.54
2023-05-05T10:12:35.714Z,34.97
2023-05-05T10:13:35.683Z,35.00
2023-05-05T10:14:36.665Z,36.10
2023-05-05T10:15:35.699Z,34.89
2023-05-05T10:16:35.777Z,35.57
2023-05-05T10:17:35.760Z,34.87
2023-05-05T10:18:35.740Z,34.41
2023-05-05T10:19:35.697Z,35.77
2023-05-05T10:20:35.696Z,36.11
2023-05-05T10:21:35.668Z,33.98
2023-05-05T10:22:35.754Z,34.56
2023-05-05T10:23:35.621Z,34.30
2023-05-05T10:24:35.658Z,35.00
2023-05-05T10:25:35.759Z,35.92
2023-05-05T10:26:35.660Z,35.82
2023-05-05T10:27:35.634Z,37.04
2023-05-05T10:28:35.752Z,36.65
2023-05-05T10:29:35.692Z,37.73
2023-05-05T10:30:35.621Z,37.91
2023-05-05T10:31:35.649Z,36.72
2023-05-05T10:32:56.410Z,37.95
2023-05-05T10:33:37.742Z,37.66
2023-05-05T10:34:35.761Z,36.94
2023-05-05T10:35:35.577Z,36.04
2023-05-05T10:36:35.580Z,37.35
2023-05-05T10:37:35.637Z,37.22
2023-05-05T10:38:35.583Z,36.61
2023-05-05T10:39:35.575Z,37.81
2023-05-05T10:40:35.555Z,35.57
2023-05-05T10:41:35.653Z,36.23
2023-05-05T10:42:35.541Z,38.40
2023-05-05T10:43:35.542Z,39.12
2023-05-05T10:44:36.293Z,38.40
2023-05-05T10:45:35.593Z,36.79
2023-05-05T10:46:35.645Z,37.07
2023-05-05T10:47:35.593Z,37.01
2023-05-05T10:48:35.578Z,38.75
2023-05-05T10:49:35.519Z,39.56
2023-05-05T10:50:35.536Z,40.94
2023-05-05T10:51:40.002Z,42.54
2023-05-05T10:52:37.527Z,40.05
2023-05-05T10:53:35.496Z,38.40
2023-05-05T10:54:37.843Z,37.05
2023-05-05T10:55:35.474Z,36.74
2023-05-05T10:56:35.478Z,36.63
2023-05-05T10:57:35.470Z,38.91
2023-05-05T10:58:46.918Z,39.79
2023-05-05T10:59:37.496Z,39.01
2023-05-05T11:00:35.479Z,37.93
2023-05-05T11:01:35.684Z,38.09
2023-05-05T11:02:35.492Z,38.62
2023-05-05T11:03:35.591Z,39.81
2023-05-05T11:04:35.443Z,42.44
2023-05-05T11:05:35.540Z,42.74
2023-05-05T11:06:35.455Z,42.48
2023-05-05T11:07:35.420Z,41.25
2023-05-05T11:08:35.460Z,39.50
2023-05-05T11:09:35.416Z,37.87
2023-05-05T11:10:35.464Z,36.42
2023-05-05T11:11:35.467Z,37.76
2023-05-05T11:12:37.405Z,38.83
2023-05-05T11:13:35.559Z,38.60
2023-05-05T11:14:36.424Z,38.07
2023-05-05T11:15:35.465Z,38.36
2023-05-05T11:16:35.471Z,38.13
2023-05-05T11:17:35.533Z,37.77
2023-05-05T11:18:35.451Z,37.89
2023-05-05T11:19:35.453Z,37.76
2023-05-05T11:20:35.460Z,37.72
2023-05-05T11:21:35.404Z,36.78
2023-05-05T11:22:35.371Z,36.32
2023-05-05T11:23:35.355Z,36.57
2023-05-05T11:24:35.371Z,38.09
2023-05-05T11:25:35.694Z,38.62
2023-05-05T11:26:35.347Z,38.49
2023-05-05T11:27:35.319Z,38.56
2023-05-05T11:28:35.314Z,38.32
2023-05-05T11:29:35.369Z,38.58
2023-05-05T11:30:35.330Z,39.72
2023-05-05T11:31:35.325Z,39.84
2023-05-05T11:32:35.321Z,41.77
2023-05-05T11:33:35.344Z,42.38
2023-05-05T11:34:35.315Z,44.02
2023-05-05T11:35:35.348Z,42.88
2023-05-05T11:36:35.270Z,42.05
2023-05-05T11:37:35.297Z,40.98
2023-05-05T11:38:35.284Z,40.96
2023-05-05T11:39:35.299Z,42.07
2023-05-05T11:40:35.266Z,41.06
2023-05-05T11:41:35.268Z,40.78
2023-05-05T11:42:35.245Z,42.60
2023-05-05T11:43:35.310Z,42.70
2023-05-05T11:44:35.256Z,43.59
2023-05-05T11:45:35.231Z,42.90
2023-05-05T11:46:35.331Z,42.93
2023-05-05T11:47:35.841Z,41.71
2023-05-05T11:48:35.262Z,41.51
2023-05-05T11:49:35.243Z,40.90
2023-05-05T11:50:35.235Z,39.89
2023-05-05T11:51:35.316Z,39.39
2023-05-05T11:52:35.179Z,38.89
2023-05-05T11:53:35.190Z,39.68
2023-05-05T11:54:35.324Z,40.09
2023-05-05T11:55:35.172Z,41.31
2023-05-05T11:56:35.169Z,40.94
2023-05-05T11:57:35.185Z,41.75
2023-05-05T11:58:35.152Z,41.55
2023-05-05T11:59:35.182Z,41.57
2023-05-05T12:00:35.288Z,42.52
2023-05-05T12:01:35.182Z,41.79
2023-05-05T12:02:35.322Z,41.65
2023-05-05T12:03:35.236Z,41.65
2023-05-05T12:04:35.185Z,42.90
2023-05-05T12:05:36.700Z,42.80
2023-05-05T12:06:36.155Z,43.49
2023-05-05T12:07:35.134Z,42.62
2023-05-05T12:08:35.148Z,43.31
2023-05-05T12:09:35.186Z,43.91
2023-05-05T12:10:35.120Z,44.82
2023-05-05T12:11:35.133Z,44.13
2023-05-05T12:12:35.120Z,43.73
2023-05-05T12:13:35.105Z,44.07
2023-05-05T12:14:35.108Z,44.67
2023-05-05T12:15:35.072Z,46.39
2023-05-05T12:16:35.133Z,48.72
2023-05-05T12:17:35.069Z,50.33
2023-05-05T12:18:35.180Z,50.56
2023-05-05T12:19:35.068Z,51.57
2023-05-05T12:20:35.876Z,53.11
2023-05-05T12:21:35.076Z,54.13
2023-05-05T12:22:35.042Z,54.83
2023-05-05T12:23:35.016Z,54.33
2023-05-05T12:24:35.054Z,55.95
2023-05-05T12:25:35.103Z,55.16
2023-05-05T12:26:35.058Z,54.93
2023-05-05T12:27:34.977Z,54.63
2023-05-05T12:28:35.968Z,54.01
2023-05-05T12:29:35.824Z,54.41
2023-05-05T12:30:35.057Z,54.58
2023-05-05T12:31:36.111Z,55.18
2023-05-05T12:32:35.020Z,54.58
2023-05-05T12:33:35.133Z,55.91
2023-05-05T12:34:35.233Z,57.06
2023-05-05T12:36:08.436Z,58.45
2023-05-05T12:36:34.922Z,58.71
2023-05-05T12:38:08.544Z,60.66
2023-05-05T12:38:34.909Z,61.04
2023-05-05T12:39:34.935Z,63.53
2023-05-05T12:40:34.937Z,65.42
2023-05-05T12:41:34.955Z,66.36
2023-05-05T12:43:07.335Z,67.79
2023-05-05T12:43:34.924Z,70.69
2023-05-05T12:44:34.946Z,69.39
2023-05-05T12:45:34.866Z,70.46
2023-05-05T12:46:35.025Z,68.09
2023-05-05T12:47:34.938Z,71.50
2023-05-05T12:48:34.904Z,70.62
2023-05-05T12:49:34.914Z,70.69
2023-05-05T12:50:34.894Z,72.36
2023-05-05T12:51:34.894Z,71.06
2023-05-05T12:53:08.293Z,70.43